sensor_id;sensor_type;location;lat;lon;timestamp;pressure;altitude;pressure_sealevel;temperature;humidity
21395;BME280;10858;42.714;23.180;2023-05-25T00:01:18;94356.66;;;13.32;96.51
21395;BME280;10858;42.714;23.180;2023-05-25T00:03:44;94357.59;;;13.40;95.84
21395;BME280;10858;42.714;23.180;2023-05-25T00:06:11;94353.75;;;13.43;95.40
21395;BME280;10858;42.714;23.180;2023-05-25T00:08:41;94348.75;;;13.40;95.69
21395;BME280;10858;42.714;23.180;2023-05-25T00:11:07;94354.59;;;13.43;95.48
21395;BME280;10858;42.714;23.180;2023-05-25T00:13:33;94359.00;;;13.35;95.52
21395;BME280;10858;42.714;23.180;2023-05-25T00:15:59;94354.38;;;13.37;95.81
21395;BME280;10858;42.714;23.180;2023-05-25T00:18:25;94357.59;;;13.40;95.70
21395;BME280;10858;42.714;23.180;2023-05-25T00:20:52;94356.75;;;13.40;95.88
21395;BME280;10858;42.714;23.180;2023-05-25T00:23:19;94360.63;;;13.28;95.97
21395;BME280;10858;42.714;23.180;2023-05-25T00:25:46;94360.31;;;13.31;95.93
21395;BME280;10858;42.714;23.180;2023-05-25T00:28:12;94361.75;;;13.25;95.57
21395;BME280;10858;42.714;23.180;2023-05-25T00:30:47;94364.41;;;13.25;96.34
21395;BME280;10858;42.714;23.180;2023-05-25T00:33:14;94369.22;;;13.22;96.50
21395;BME280;10858;42.714;23.180;2023-05-25T00:35:42;94369.75;;;13.25;96.84
21395;BME280;10858;42.714;23.180;2023-05-25T00:38:17;94369.06;;;13.23;96.49
21395;BME280;10858;42.714;23.180;2023-05-25T00:40:43;94366.56;;;13.22;96.59
21395;BME280;10858;42.714;23.180;2023-05-25T00:43:11;94366.25;;;13.25;96.23
21395;BME280;10858;42.714;23.180;2023-05-25T00:45:38;94363.97;;;13.12;95.91
21395;BME280;10858;42.714;23.180;2023-05-25T00:48:05;94369.13;;;13.14;96.15
21395;BME280;10858;42.714;23.180;2023-05-25T00:50:42;94364.66;;;13.14;96.13
21395;BME280;10858;42.714;23.180;2023-05-25T00:53:11;94368.97;;;13.15;96.10
21395;BME280;10858;42.714;23.180;2023-05-25T00:58:13;94370.28;;;13.11;96.57
21395;BME280;10858;42.714;23.180;2023-05-25T01:00:42;94367.44;;;13.13;97.02
21395;BME280;10858;42.714;23.180;2023-05-25T01:03:13;94371.66;;;13.15;96.92
21395;BME280;10858;42.714;23.180;2023-05-25T01:05:46;94376.97;;;13.15;96.68
21395;BME280;10858;42.714;23.180;2023-05-25T01:08:15;94377.28;;;13.12;95.72
21395;BME280;10858;42.714;23.180;2023-05-25T01:10:42;94366.56;;;13.04;95.38
21395;BME280;10858;42.714;23.180;2023-05-25T01:13:12;94369.69;;;12.90;96.03
21395;BME280;10858;42.714;23.180;2023-05-25T01:15:39;94374.06;;;12.81;96.95
21395;BME280;10858;42.714;23.180;2023-05-25T01:18:06;94367.09;;;12.80;97.09
21395;BME280;10858;42.714;23.180;2023-05-25T01:20:34;94368.50;;;12.75;96.82
21395;BME280;10858;42.714;23.180;2023-05-25T01:23:10;94375.41;;;12.68;96.65
21395;BME280;10858;42.714;23.180;2023-05-25T01:25:43;94370.53;;;12.63;96.56
21395;BME280;10858;42.714;23.180;2023-05-25T01:28:20;94364.09;;;12.66;96.91
21395;BME280;10858;42.714;23.180;2023-05-25T01:30:49;94357.22;;;12.63;96.43
21395;BME280;10858;42.714;23.180;2023-05-25T01:33:17;94365.38;;;12.62;96.61
21395;BME280;10858;42.714;23.180;2023-05-25T01:35:44;94356.25;;;12.64;96.58
21395;BME280;10858;42.714;23.180;2023-05-25T01:38:12;94365.22;;;12.63;96.48
21395;BME280;10858;42.714;23.180;2023-05-25T01:40:38;94362.38;;;12.65;96.49
21395;BME280;10858;42.714;23.180;2023-05-25T01:43:05;94372.34;;;12.63;96.60
21395;BME280;10858;42.714;23.180;2023-05-25T01:45:31;94351.22;;;12.61;97.02
21395;BME280;10858;42.714;23.180;2023-05-25T01:50:58;94352.44;;;12.67;96.87
21395;BME280;10858;42.714;23.180;2023-05-25T01:53:36;94349.19;;;12.73;96.03
21395;BME280;10858;42.714;23.180;2023-05-25T01:56:08;94354.38;;;12.74;95.67
21395;BME280;10858;42.714;23.180;2023-05-25T01:58:42;94361.56;;;12.64;96.70
21395;BME280;10858;42.714;23.180;2023-05-25T02:01:09;94348.97;;;12.57;97.42
21395;BME280;10858;42.714;23.180;2023-05-25T02:03:37;94360.22;;;12.51;97.81
21395;BME280;10858;42.714;23.180;2023-05-25T02:06:06;94362.50;;;12.46;97.93
21395;BME280;10858;42.714;23.180;2023-05-25T02:08:32;94364.56;;;12.52;98.31
21395;BME280;10858;42.714;23.180;2023-05-25T02:10:59;94371.16;;;12.48;98.00
21395;BME280;10858;42.714;23.180;2023-05-25T02:13:26;94368.66;;;12.46;97.78
21395;BME280;10858;42.714;23.180;2023-05-25T02:15:52;94368.69;;;12.37;97.66
21395;BME280;10858;42.714;23.180;2023-05-25T02:18:18;94372.34;;;12.36;97.10
21395;BME280;10858;42.714;23.180;2023-05-25T02:20:45;94367.56;;;12.39;96.91
21395;BME280;10858;42.714;23.180;2023-05-25T02:23:12;94373.13;;;12.46;97.03
21395;BME280;10858;42.714;23.180;2023-05-25T02:25:38;94371.94;;;12.31;95.91
21395;BME280;10858;42.714;23.180;2023-05-25T02:28:04;94372.38;;;12.17;96.69
21395;BME280;10858;42.714;23.180;2023-05-25T02:30:31;94377.72;;;12.17;96.68
21395;BME280;10858;42.714;23.180;2023-05-25T02:32:57;94378.88;;;12.14;96.58
21395;BME280;10858;42.714;23.180;2023-05-25T02:35:23;94376.66;;;12.00;96.90
21395;BME280;10858;42.714;23.180;2023-05-25T02:37:49;94382.78;;;12.10;97.35
21395;BME280;10858;42.714;23.180;2023-05-25T02:40:16;94386.97;;;12.13;97.59
21395;BME280;10858;42.714;23.180;2023-05-25T02:42:46;94383.88;;;12.17;97.95
21395;BME280;10858;42.714;23.180;2023-05-25T02:45:12;94389.72;;;12.21;97.96
21395;BME280;10858;42.714;23.180;2023-05-25T02:47:38;94401.34;;;12.29;97.96
21395;BME280;10858;42.714;23.180;2023-05-25T02:50:05;94401.44;;;12.37;97.54
21395;BME280;10858;42.714;23.180;2023-05-25T02:52:31;94406.44;;;12.50;96.57
21395;BME280;10858;42.714;23.180;2023-05-25T02:54:58;94410.78;;;12.51;97.15
21395;BME280;10858;42.714;23.180;2023-05-25T02:57:24;94409.25;;;12.48;97.39
21395;BME280;10858;42.714;23.180;2023-05-25T02:59:50;94403.91;;;12.58;97.59
21395;BME280;10858;42.714;23.180;2023-05-25T03:02:17;94407.34;;;12.68;97.66
21395;BME280;10858;42.714;23.180;2023-05-25T03:04:45;94413.41;;;12.60;98.02
21395;BME280;10858;42.714;23.180;2023-05-25T03:07:14;94411.09;;;12.75;98.71
21395;BME280;10858;42.714;23.180;2023-05-25T03:09:40;94400.41;;;12.85;98.80
21395;BME280;10858;42.714;23.180;2023-05-25T03:12:07;94403.19;;;12.83;98.43
21395;BME280;10858;42.714;23.180;2023-05-25T03:14:33;94399.78;;;12.91;98.54
21395;BME280;10858;42.714;23.180;2023-05-25T03:16:59;94402.22;;;13.11;97.99
21395;BME280;10858;42.714;23.180;2023-05-25T03:19:25;94404.09;;;13.28;97.49
21395;BME280;10858;42.714;23.180;2023-05-25T03:21:52;94404.78;;;13.30;97.08
21395;BME280;10858;42.714;23.180;2023-05-25T03:24:18;94410.31;;;13.19;96.65
21395;BME280;10858;42.714;23.180;2023-05-25T03:26:44;94416.84;;;13.07;96.32
21395;BME280;10858;42.714;23.180;2023-05-25T03:29:10;94414.56;;;13.12;96.49
21395;BME280;10858;42.714;23.180;2023-05-25T03:31:36;94412.59;;;13.14;96.83
21395;BME280;10858;42.714;23.180;2023-05-25T03:34:03;94406.66;;;13.20;97.25
21395;BME280;10858;42.714;23.180;2023-05-25T03:36:31;94420.09;;;13.28;96.89
21395;BME280;10858;42.714;23.180;2023-05-25T03:38:58;94424.22;;;13.40;96.64
21395;BME280;10858;42.714;23.180;2023-05-25T03:41:25;94424.13;;;13.50;96.33
21395;BME280;10858;42.714;23.180;2023-05-25T03:43:52;94432.88;;;13.60;96.32
21395;BME280;10858;42.714;23.180;2023-05-25T03:46:18;94425.34;;;13.73;96.66
21395;BME280;10858;42.714;23.180;2023-05-25T03:48:44;94424.50;;;13.90;95.92
21395;BME280;10858;42.714;23.180;2023-05-25T03:51:10;94428.59;;;14.02;96.65
21395;BME280;10858;42.714;23.180;2023-05-25T03:53:46;94431.00;;;14.31;96.92
21395;BME280;10858;42.714;23.180;2023-05-25T03:56:12;94432.16;;;14.54;96.53
21395;BME280;10858;42.714;23.180;2023-05-25T03:58:38;94426.91;;;14.70;96.18
21395;BME280;10858;42.714;23.180;2023-05-25T04:01:04;94433.66;;;14.82;95.76
21395;BME280;10858;42.714;23.180;2023-05-25T04:03:30;94436.56;;;14.97;94.61
21395;BME280;10858;42.714;23.180;2023-05-25T04:05:57;94439.41;;;15.03;94.16
21395;BME280;10858;42.714;23.180;2023-05-25T04:08:25;94438.19;;;15.31;95.08
21395;BME280;10858;42.714;23.180;2023-05-25T04:10:53;94449.38;;;15.69;94.79
21395;BME280;10858;42.714;23.180;2023-05-25T04:13:19;94443.72;;;16.04;94.66
21395;BME280;10858;42.714;23.180;2023-05-25T04:15:46;94450.56;;;16.23;93.82
21395;BME280;10858;42.714;23.180;2023-05-25T04:18:12;94451.56;;;16.13;90.62
21395;BME280;10858;42.714;23.180;2023-05-25T04:20:38;94446.56;;;16.18;88.79
21395;BME280;10858;42.714;23.180;2023-05-25T04:23:04;94447.22;;;16.37;88.46
21395;BME280;10858;42.714;23.180;2023-05-25T04:25:31;94448.50;;;16.89;87.51
21395;BME280;10858;42.714;23.180;2023-05-25T04:27:57;94448.41;;;17.60;85.18
21395;BME280;10858;42.714;23.180;2023-05-25T04:30:23;94460.59;;;18.46;79.60
21395;BME280;10858;42.714;23.180;2023-05-25T04:32:49;94458.97;;;18.97;77.62
21395;BME280;10858;42.714;23.180;2023-05-25T04:35:16;94462.69;;;19.40;76.79
21395;BME280;10858;42.714;23.180;2023-05-25T04:37:45;94465.56;;;19.53;75.54
21395;BME280;10858;42.714;23.180;2023-05-25T04:40:13;94466.00;;;19.86;75.31
21395;BME280;10858;42.714;23.180;2023-05-25T04:42:40;94462.97;;;19.95;73.94
21395;BME280;10858;42.714;23.180;2023-05-25T04:45:07;94463.06;;;20.38;74.34
21395;BME280;10858;42.714;23.180;2023-05-25T04:47:37;94469.78;;;20.27;73.22
21395;BME280;10858;42.714;23.180;2023-05-25T04:50:07;94472.03;;;20.45;73.53
21395;BME280;10858;42.714;23.180;2023-05-25T04:52:34;94470.88;;;22.05;68.40
21395;BME280;10858;42.714;23.180;2023-05-25T04:55:01;94472.19;;;23.86;61.00
21395;BME280;10858;42.714;23.180;2023-05-25T04:57:28;94477.66;;;24.68;57.09
21395;BME280;10858;42.714;23.180;2023-05-25T04:59:56;94466.53;;;25.56;53.08
21395;BME280;10858;42.714;23.180;2023-05-25T05:02:22;94462.69;;;26.66;48.39
21395;BME280;10858;42.714;23.180;2023-05-25T05:04:49;94461.84;;;27.94;47.20
21395;BME280;10858;42.714;23.180;2023-05-25T05:07:19;94474.28;;;29.21;40.03
21395;BME280;10858;42.714;23.180;2023-05-25T05:09:46;94464.50;;;30.51;40.55
21395;BME280;10858;42.714;23.180;2023-05-25T05:12:12;94461.28;;;30.81;39.03
21395;BME280;10858;42.714;23.180;2023-05-25T05:14:38;94462.00;;;31.46;36.25
21395;BME280;10858;42.714;23.180;2023-05-25T05:17:05;94460.63;;;31.49;36.33
21395;BME280;10858;42.714;23.180;2023-05-25T05:19:31;94465.47;;;32.57;32.89
21395;BME280;10858;42.714;23.180;2023-05-25T05:21:58;94469.47;;;32.96;31.08
21395;BME280;10858;42.714;23.180;2023-05-25T05:24:25;94470.09;;;32.00;33.29
21395;BME280;10858;42.714;23.180;2023-05-25T05:26:52;94474.22;;;33.11;33.04
21395;BME280;10858;42.714;23.180;2023-05-25T05:29:18;94479.31;;;32.25;33.18
21395;BME280;10858;42.714;23.180;2023-05-25T05:31:44;94478.63;;;32.50;33.10
21395;BME280;10858;42.714;23.180;2023-05-25T05:34:11;94473.84;;;32.30;33.64
21395;BME280;10858;42.714;23.180;2023-05-25T05:36:37;94483.38;;;32.18;32.84
21395;BME280;10858;42.714;23.180;2023-05-25T05:39:03;94483.25;;;31.93;34.38
21395;BME280;10858;42.714;23.180;2023-05-25T05:41:29;94483.06;;;34.23;31.23
21395;BME280;10858;42.714;23.180;2023-05-25T05:43:56;94474.91;;;34.82;30.53
21395;BME280;10858;42.714;23.180;2023-05-25T05:46:22;94482.44;;;34.67;30.84
21395;BME280;10858;42.714;23.180;2023-05-25T05:48:48;94469.97;;;32.83;32.71
21395;BME280;10858;42.714;23.180;2023-05-25T05:51:14;94475.44;;;32.73;32.82
21395;BME280;10858;42.714;23.180;2023-05-25T05:53:40;94470.84;;;32.32;33.16
21395;BME280;10858;42.714;23.180;2023-05-25T05:56:16;94477.44;;;31.31;34.96
21395;BME280;10858;42.714;23.180;2023-05-25T05:58:42;94471.06;;;30.29;38.73
21395;BME280;10858;42.714;23.180;2023-05-25T06:01:09;94466.97;;;30.74;38.86
21395;BME280;10858;42.714;23.180;2023-05-25T06:03:35;94474.75;;;33.08;35.14
21395;BME280;10858;42.714;23.180;2023-05-25T06:06:03;94472.88;;;32.05;34.38
21395;BME280;10858;42.714;23.180;2023-05-25T06:08:29;94480.41;;;29.61;38.60
21395;BME280;10858;42.714;23.180;2023-05-25T06:10:55;94482.03;;;27.82;42.13
21395;BME280;10858;42.714;23.180;2023-05-25T06:13:21;94478.09;;;28.64;43.37
21395;BME280;10858;42.714;23.180;2023-05-25T06:15:48;94490.47;;;29.11;39.87
21395;BME280;10858;42.714;23.180;2023-05-25T06:18:14;94479.88;;;27.49;44.72
21395;BME280;10858;42.714;23.180;2023-05-25T06:20:41;94486.69;;;27.17;44.90
21395;BME280;10858;42.714;23.180;2023-05-25T06:23:07;94481.28;;;26.87;45.35
21395;BME280;10858;42.714;23.180;2023-05-25T06:25:36;94484.63;;;27.01;48.05
21395;BME280;10858;42.714;23.180;2023-05-25T06:28:02;94488.28;;;26.94;47.26
21395;BME280;10858;42.714;23.180;2023-05-25T06:30:29;94492.38;;;27.15;46.06
21395;BME280;10858;42.714;23.180;2023-05-25T06:33:00;94492.56;;;26.25;48.25
21395;BME280;10858;42.714;23.180;2023-05-25T06:35:26;94499.09;;;27.77;46.33
21395;BME280;10858;42.714;23.180;2023-05-25T06:37:53;94494.56;;;30.46;39.99
21395;BME280;10858;42.714;23.180;2023-05-25T06:40:19;94501.94;;;30.67;37.31
21395;BME280;10858;42.714;23.180;2023-05-25T06:42:45;94503.56;;;30.85;37.02
21395;BME280;10858;42.714;23.180;2023-05-25T06:45:12;94507.00;;;30.54;38.16
21395;BME280;10858;42.714;23.180;2023-05-25T06:47:38;94510.22;;;31.42;37.08
21395;BME280;10858;42.714;23.180;2023-05-25T06:50:05;94511.88;;;33.10;34.12
21395;BME280;10858;42.714;23.180;2023-05-25T06:52:32;94520.94;;;33.01;33.84
21395;BME280;10858;42.714;23.180;2023-05-25T06:54:58;94516.44;;;29.25;38.80
21395;BME280;10858;42.714;23.180;2023-05-25T06:57:24;94517.22;;;27.60;44.25
21395;BME280;10858;42.714;23.180;2023-05-25T06:59:51;94515.56;;;26.58;46.85
21395;BME280;10858;42.714;23.180;2023-05-25T07:02:17;94516.50;;;25.30;49.30
21395;BME280;10858;42.714;23.180;2023-05-25T07:04:45;94519.47;;;24.09;51.99
21395;BME280;10858;42.714;23.180;2023-05-25T07:07:11;94519.91;;;24.06;53.87
21395;BME280;10858;42.714;23.180;2023-05-25T07:09:39;94517.69;;;23.25;57.02
21395;BME280;10858;42.714;23.180;2023-05-25T07:12:05;94518.94;;;23.09;57.73
21395;BME280;10858;42.714;23.180;2023-05-25T07:14:37;94520.44;;;22.32;61.35
21395;BME280;10858;42.714;23.180;2023-05-25T07:17:03;94508.91;;;22.57;59.44
21395;BME280;10858;42.714;23.180;2023-05-25T07:19:29;94517.16;;;22.36;60.97
21395;BME280;10858;42.714;23.180;2023-05-25T07:21:55;94503.69;;;21.95;62.03
21395;BME280;10858;42.714;23.180;2023-05-25T07:24:21;94498.69;;;21.99;62.42
21395;BME280;10858;42.714;23.180;2023-05-25T07:26:48;94508.38;;;22.28;61.04
21395;BME280;10858;42.714;23.180;2023-05-25T07:29:14;94501.19;;;22.00;62.77
21395;BME280;10858;42.714;23.180;2023-05-25T07:31:40;94509.28;;;21.60;68.42
21395;BME280;10858;42.714;23.180;2023-05-25T07:34:07;94509.41;;;21.45;65.98
21395;BME280;10858;42.714;23.180;2023-05-25T07:36:33;94513.03;;;21.31;70.18
21395;BME280;10858;42.714;23.180;2023-05-25T07:38:59;94509.66;;;21.50;70.07
21395;BME280;10858;42.714;23.180;2023-05-25T07:41:26;94513.47;;;21.62;70.04
21395;BME280;10858;42.714;23.180;2023-05-25T07:43:52;94494.88;;;21.80;73.51
21395;BME280;10858;42.714;23.180;2023-05-25T07:46:19;94498.03;;;22.51;70.79
21395;BME280;10858;42.714;23.180;2023-05-25T07:48:50;94499.78;;;22.91;70.95
21395;BME280;10858;42.714;23.180;2023-05-25T07:51:16;94502.50;;;23.37;68.03
21395;BME280;10858;42.714;23.180;2023-05-25T07:53:42;94501.06;;;22.89;69.67
21395;BME280;10858;42.714;23.180;2023-05-25T07:56:09;94504.53;;;22.02;71.63
21395;BME280;10858;42.714;23.180;2023-05-25T07:58:35;94495.56;;;21.61;75.66
21395;BME280;10858;42.714;23.180;2023-05-25T08:01:02;94502.88;;;21.33;76.01
21395;BME280;10858;42.714;23.180;2023-05-25T08:03:28;94498.38;;;21.40;78.68
21395;BME280;10858;42.714;23.180;2023-05-25T08:05:54;94482.78;;;21.76;78.17
21395;BME280;10858;42.714;23.180;2023-05-25T08:08:20;94492.78;;;21.42;78.58
21395;BME280;10858;42.714;23.180;2023-05-25T08:10:47;94494.88;;;21.18;75.57
21395;BME280;10858;42.714;23.180;2023-05-25T08:13:13;94507.56;;;20.97;77.49
21395;BME280;10858;42.714;23.180;2023-05-25T08:15:39;94520.59;;;20.72;75.78
21395;BME280;10858;42.714;23.180;2023-05-25T08:18:06;94528.56;;;19.44;80.01
21395;BME280;10858;42.714;23.180;2023-05-25T08:20:32;94547.03;;;18.73;82.11
21395;BME280;10858;42.714;23.180;2023-05-25T08:22:58;94552.38;;;17.97;86.28
21395;BME280;10858;42.714;23.180;2023-05-25T08:25:25;94563.91;;;17.66;91.76
21395;BME280;10858;42.714;23.180;2023-05-25T08:27:51;94573.16;;;17.48;92.77
21395;BME280;10858;42.714;23.180;2023-05-25T08:30:17;94571.22;;;17.18;92.13
21395;BME280;10858;42.714;23.180;2023-05-25T08:32:43;94578.72;;;17.54;90.81
21395;BME280;10858;42.714;23.180;2023-05-25T08:35:10;94582.03;;;17.64;88.89
21395;BME280;10858;42.714;23.180;2023-05-25T08:37:39;94581.75;;;17.59;86.41
21395;BME280;10858;42.714;23.180;2023-05-25T08:40:07;94573.25;;;17.87;89.48
21395;BME280;10858;42.714;23.180;2023-05-25T08:42:34;94575.09;;;17.78;87.29
21395;BME280;10858;42.714;23.180;2023-05-25T08:45:00;94578.22;;;17.59;89.14
21395;BME280;10858;42.714;23.180;2023-05-25T08:47:30;94573.84;;;17.58;91.55
21395;BME280;10858;42.714;23.180;2023-05-25T08:49:59;94575.03;;;17.94;92.30
21395;BME280;10858;42.714;23.180;2023-05-25T08:52:29;94567.56;;;18.12;90.56
21395;BME280;10858;42.714;23.180;2023-05-25T08:55:05;94575.94;;;18.17;86.07
21395;BME280;10858;42.714;23.180;2023-05-25T08:57:53;94572.13;;;18.34;86.62
21395;BME280;10858;42.714;23.180;2023-05-25T09:00:27;94573.97;;;18.64;86.49
21395;BME280;10858;42.714;23.180;2023-05-25T09:03:15;94574.03;;;19.02;83.96
21395;BME280;10858;42.714;23.180;2023-05-25T09:05:43;94582.50;;;19.13;81.68
21395;BME280;10858;42.714;23.180;2023-05-25T09:08:10;94587.75;;;19.44;82.26
21395;BME280;10858;42.714;23.180;2023-05-25T09:10:37;94587.41;;;19.76;78.47
21395;BME280;10858;42.714;23.180;2023-05-25T09:13:04;94596.53;;;19.75;78.96
21395;BME280;10858;42.714;23.180;2023-05-25T09:15:31;94592.34;;;20.02;78.77
21395;BME280;10858;42.714;23.180;2023-05-25T09:17:58;94598.94;;;19.99;77.08
21395;BME280;10858;42.714;23.180;2023-05-25T09:20:24;94601.69;;;19.62;75.69
21395;BME280;10858;42.714;23.180;2023-05-25T09:22:57;94599.56;;;19.87;74.28
21395;BME280;10858;42.714;23.180;2023-05-25T09:25:28;94603.09;;;19.87;74.80
21395;BME280;10858;42.714;23.180;2023-05-25T09:27:56;94599.69;;;19.93;75.00
21395;BME280;10858;42.714;23.180;2023-05-25T09:30:25;94601.78;;;20.12;74.79
21395;BME280;10858;42.714;23.180;2023-05-25T09:33:12;94597.88;;;20.44;74.36
21395;BME280;10858;42.714;23.180;2023-05-25T09:35:39;94598.25;;;20.41;72.19
21395;BME280;10858;42.714;23.180;2023-05-25T09:38:06;94598.09;;;20.64;71.04
21395;BME280;10858;42.714;23.180;2023-05-25T09:40:33;94598.41;;;20.96;66.17
21395;BME280;10858;42.714;23.180;2023-05-25T09:43:01;94591.81;;;20.99;69.98
21395;BME280;10858;42.714;23.180;2023-05-25T09:45:28;94594.19;;;21.30;68.42
21395;BME280;10858;42.714;23.180;2023-05-25T09:47:58;94588.09;;;21.42;69.47
21395;BME280;10858;42.714;23.180;2023-05-25T09:50:28;94590.59;;;21.44;67.83
21395;BME280;10858;42.714;23.180;2023-05-25T09:52:59;94585.53;;;21.34;71.12
21395;BME280;10858;42.714;23.180;2023-05-25T09:55:27;94587.00;;;21.64;67.59
21395;BME280;10858;42.714;23.180;2023-05-25T09:57:54;94581.56;;;21.58;67.92
21395;BME280;10858;42.714;23.180;2023-05-25T10:00:22;94580.56;;;21.65;67.68
21395;BME280;10858;42.714;23.180;2023-05-25T10:02:49;94575.78;;;21.67;68.16
21395;BME280;10858;42.714;23.180;2023-05-25T10:05:16;94570.41;;;22.02;65.18
21395;BME280;10858;42.714;23.180;2023-05-25T10:07:44;94565.00;;;22.42;63.56
21395;BME280;10858;42.714;23.180;2023-05-25T10:10:13;94553.06;;;22.77;61.85
21395;BME280;10858;42.714;23.180;2023-05-25T10:12:44;94555.81;;;22.37;61.92
21395;BME280;10858;42.714;23.180;2023-05-25T10:15:13;94558.50;;;23.04;61.30
21395;BME280;10858;42.714;23.180;2023-05-25T10:17:46;94550.84;;;22.47;60.91
21395;BME280;10858;42.714;23.180;2023-05-25T10:20:15;94554.72;;;22.72;60.32
21395;BME280;10858;42.714;23.180;2023-05-25T10:22:53;94551.38;;;22.70;63.33
21395;BME280;10858;42.714;23.180;2023-05-25T10:25:43;94550.56;;;22.76;61.59
21395;BME280;10858;42.714;23.180;2023-05-25T10:28:29;94544.91;;;22.64;65.16
21395;BME280;10858;42.714;23.180;2023-05-25T10:30:57;94551.66;;;22.41;64.22
21395;BME280;10858;42.714;23.180;2023-05-25T10:33:24;94537.84;;;22.63;61.96
21395;BME280;10858;42.714;23.180;2023-05-25T10:35:51;94538.53;;;22.98;62.49
21395;BME280;10858;42.714;23.180;2023-05-25T10:38:19;94531.88;;;23.33;62.42
21395;BME280;10858;42.714;23.180;2023-05-25T10:40:46;94522.91;;;23.00;58.79
21395;BME280;10858;42.714;23.180;2023-05-25T10:43:19;94520.63;;;23.49;60.04
21395;BME280;10858;42.714;23.180;2023-05-25T10:45:47;94520.03;;;24.31;56.05
21395;BME280;10858;42.714;23.180;2023-05-25T10:48:16;94519.94;;;24.44;56.30
21395;BME280;10858;42.714;23.180;2023-05-25T10:50:49;94518.88;;;24.52;57.13
21395;BME280;10858;42.714;23.180;2023-05-25T10:53:17;94507.72;;;23.45;58.61
21395;BME280;10858;42.714;23.180;2023-05-25T10:58:19;94501.72;;;24.20;56.99
21395;BME280;10858;42.714;23.180;2023-05-25T11:00:59;94502.16;;;24.92;53.77
21395;BME280;10858;42.714;23.180;2023-05-25T11:06:16;94494.75;;;24.37;59.49
21395;BME280;10858;42.714;23.180;2023-05-25T11:08:55;94498.09;;;24.39;58.88
21395;BME280;10858;42.714;23.180;2023-05-25T11:14:27;94489.53;;;24.35;57.97
21395;BME280;10858;42.714;23.180;2023-05-25T11:17:14;94496.31;;;24.51;56.78
21395;BME280;10858;42.714;23.180;2023-05-25T11:19:55;94497.72;;;24.67;56.92
21395;BME280;10858;42.714;23.180;2023-05-25T11:22:30;94506.41;;;24.82;50.77
21395;BME280;10858;42.714;23.180;2023-05-25T11:24:58;94507.44;;;25.12;54.91
21395;BME280;10858;42.714;23.180;2023-05-25T11:27:40;94504.34;;;24.77;54.27
21395;BME280;10858;42.714;23.180;2023-05-25T11:30:11;94501.09;;;24.11;56.11
21395;BME280;10858;42.714;23.180;2023-05-25T11:32:48;94500.06;;;24.12;57.40
21395;BME280;10858;42.714;23.180;2023-05-25T11:35:15;94505.66;;;23.40;57.08
21395;BME280;10858;42.714;23.180;2023-05-25T11:37:49;94488.16;;;23.36;59.68
21395;BME280;10858;42.714;23.180;2023-05-25T11:40:15;94487.69;;;23.65;59.74
21395;BME280;10858;42.714;23.180;2023-05-25T11:42:44;94484.28;;;23.90;55.60
21395;BME280;10858;42.714;23.180;2023-05-25T11:45:14;94477.31;;;24.13;54.41
21395;BME280;10858;42.714;23.180;2023-05-25T11:47:40;94485.41;;;24.33;54.60
21395;BME280;10858;42.714;23.180;2023-05-25T11:50:13;94484.56;;;24.64;55.16
21395;BME280;10858;42.714;23.180;2023-05-25T11:52:39;94483.28;;;25.28;53.57
21395;BME280;10858;42.714;23.180;2023-05-25T11:55:11;94480.38;;;25.73;52.02
21395;BME280;10858;42.714;23.180;2023-05-25T11:57:38;94475.56;;;24.76;52.16
21395;BME280;10858;42.714;23.180;2023-05-25T12:00:05;94473.41;;;25.41;50.41
21395;BME280;10858;42.714;23.180;2023-05-25T12:02:40;94469.06;;;25.94;48.26
21395;BME280;10858;42.714;23.180;2023-05-25T12:05:09;94468.97;;;25.82;44.77
21395;BME280;10858;42.714;23.180;2023-05-25T12:07:42;94467.84;;;25.90;48.46
21395;BME280;10858;42.714;23.180;2023-05-25T12:10:13;94469.81;;;26.97;42.69
21395;BME280;10858;42.714;23.180;2023-05-25T12:12:48;94470.63;;;26.38;41.32
21395;BME280;10858;42.714;23.180;2023-05-25T12:15:20;94467.91;;;26.85;43.44
21395;BME280;10858;42.714;23.180;2023-05-25T12:17:48;94467.84;;;27.15;40.24
21395;BME280;10858;42.714;23.180;2023-05-25T12:20:15;94462.03;;;27.12;43.05
21395;BME280;10858;42.714;23.180;2023-05-25T12:22:43;94451.00;;;27.07;42.98
21395;BME280;10858;42.714;23.180;2023-05-25T12:25:10;94454.41;;;27.90;42.02
21395;BME280;10858;42.714;23.180;2023-05-25T12:27:37;94450.56;;;27.33;42.10
21395;BME280;10858;42.714;23.180;2023-05-25T12:30:08;94440.56;;;26.33;44.62
21395;BME280;10858;42.714;23.180;2023-05-25T12:32:53;94437.56;;;25.68;42.21
21395;BME280;10858;42.714;23.180;2023-05-25T12:35:19;94434.38;;;25.89;43.28
21395;BME280;10858;42.714;23.180;2023-05-25T12:37:45;94425.97;;;26.45;42.33
21395;BME280;10858;42.714;23.180;2023-05-25T12:40:19;94431.09;;;26.83;41.66
21395;BME280;10858;42.714;23.180;2023-05-25T12:42:55;94435.34;;;27.55;41.31
21395;BME280;10858;42.714;23.180;2023-05-25T12:45:22;94425.13;;;28.65;40.87
21395;BME280;10858;42.714;23.180;2023-05-25T12:47:48;94421.28;;;29.22;36.37
21395;BME280;10858;42.714;23.180;2023-05-25T12:50:15;94415.00;;;29.38;36.56
21395;BME280;10858;42.714;23.180;2023-05-25T12:52:43;94414.75;;;28.95;38.49
21395;BME280;10858;42.714;23.180;2023-05-25T13:00:21;94405.31;;;27.32;39.93
21395;BME280;10858;42.714;23.180;2023-05-25T13:02:48;94411.25;;;27.75;37.83
21395;BME280;10858;42.714;23.180;2023-05-25T13:05:28;94399.19;;;27.59;36.63
21395;BME280;10858;42.714;23.180;2023-05-25T13:07:56;94394.75;;;27.70;37.23
21395;BME280;10858;42.714;23.180;2023-05-25T13:10:23;94391.06;;;27.99;39.52
21395;BME280;10858;42.714;23.180;2023-05-25T13:12:51;94388.44;;;28.16;35.72
21395;BME280;10858;42.714;23.180;2023-05-25T13:15:21;94391.47;;;28.59;36.08